GKPFL EGKK-EHAM
Flight info
| Callsign | GKPFL |
|---|---|
| Flight time | N/A |
| Altitude | 29000 |
| Route | FRANE M604 GASBA M197 REDFA |
| Aircraft | CL60/M-SBDE1E2E3FGHIJ4J5J7M3RWXYZ/LB1V1D1 |
Departure
| Time | 2026-05-06 10:53 |
|---|---|
| Airport | London Gatwick Airport (EGKK) |
Arrival
| Time | N/A |
|---|---|
| Airport | Amsterdam Airport Schiphol (EHAM) |
| Time | Latitude | Longitude | Altitude | Speed | Heading |
|---|---|---|---|---|---|
| 2026-05-06 10:24 | 51.15313 | -0.17930 | 210 ft | 0 kts | 347° |
| 2026-05-06 10:44 | 51.15289 | -0.17922 | 210 ft | 2 kts | 347° |
| 2026-05-06 10:44 | 51.15275 | -0.17916 | 210 ft | 2 kts | 347° |
| 2026-05-06 10:44 | 51.15260 | -0.17911 | 210 ft | 2 kts | 347° |
| 2026-05-06 10:44 | 51.15251 | -0.17908 | 210 ft | 2 kts | 340° |
| 2026-05-06 10:45 | 51.15240 | -0.17892 | 211 ft | 2 kts | 298° |
| 2026-05-06 10:45 | 51.15237 | -0.17871 | 211 ft | 1 kts | 261° |
| 2026-05-06 10:45 | 51.15238 | -0.17866 | 210 ft | 0 kts | 257° |
| 2026-05-06 10:47 | 51.15237 | -0.17869 | 210 ft | 2 kts | 258° |
| 2026-05-06 10:47 | 51.15229 | -0.17936 | 210 ft | 10 kts | 260° |
| 2026-05-06 10:48 | 51.15208 | -0.18088 | 210 ft | 16 kts | 258° |
| 2026-05-06 10:48 | 51.15183 | -0.18283 | 210 ft | 19 kts | 259° |
| 2026-05-06 10:48 | 51.15158 | -0.18505 | 210 ft | 20 kts | 259° |
| 2026-05-06 10:48 | 51.15126 | -0.18746 | 210 ft | 23 kts | 258° |
| 2026-05-06 10:49 | 51.15089 | -0.19015 | 210 ft | 26 kts | 258° |
| 2026-05-06 10:49 | 51.15048 | -0.19316 | 210 ft | 28 kts | 259° |
| 2026-05-06 10:49 | 51.15008 | -0.19601 | 210 ft | 24 kts | 258° |
| 2026-05-06 10:49 | 51.14970 | -0.19878 | 210 ft | 26 kts | 258° |
| 2026-05-06 10:50 | 51.14932 | -0.20154 | 210 ft | 24 kts | 258° |
| 2026-05-06 10:50 | 51.14897 | -0.20414 | 210 ft | 23 kts | 258° |
| 2026-05-06 10:50 | 51.14863 | -0.20657 | 210 ft | 23 kts | 258° |
| 2026-05-06 10:50 | 51.14827 | -0.20921 | 210 ft | 25 kts | 257° |
| 2026-05-06 10:51 | 51.14785 | -0.21179 | 210 ft | 21 kts | 247° |
| 2026-05-06 10:51 | 51.14743 | -0.21397 | 210 ft | 12 kts | 219° |
| 2026-05-06 10:51 | 51.14658 | -0.21359 | 210 ft | 15 kts | 130° |
| 2026-05-06 10:51 | 51.14573 | -0.21305 | 210 ft | 13 kts | 153° |
| 2026-05-06 10:52 | 51.14520 | -0.21167 | 210 ft | 16 kts | 79° |
| 2026-05-06 10:52 | 51.14534 | -0.21062 | 210 ft | 0 kts | 77° |
| 2026-05-06 10:53 | 51.14543 | -0.20998 | 210 ft | 29 kts | 77° |
| 2026-05-06 10:53 | 51.14666 | -0.20102 | 211 ft | 133 kts | 77° |
| 2026-05-06 10:53 | 51.14860 | -0.18364 | 709 ft | 178 kts | 79° |
| 2026-05-06 10:53 | 51.15083 | -0.16229 | 1454 ft | 209 kts | 76° |
| 2026-05-06 10:54 | 51.15384 | -0.13985 | 2256 ft | 205 kts | 73° |
| 2026-05-06 10:54 | 51.15691 | -0.11818 | 3002 ft | 208 kts | 73° |
| 2026-05-06 10:54 | 51.16050 | -0.09312 | 3666 ft | 250 kts | 74° |
| 2026-05-06 10:54 | 51.16444 | -0.06491 | 4650 ft | 268 kts | 75° |
| 2026-05-06 10:55 | 51.16808 | -0.03566 | 4947 ft | 269 kts | 80° |
| 2026-05-06 10:55 | 51.16860 | -0.00592 | 4976 ft | 269 kts | 89° |